createdAt,value
2023-02-15T00:00:32.337Z,14.97
2023-02-15T00:03:01.061Z,14.93
2023-02-15T00:05:30.325Z,14.94
2023-02-15T00:07:58.692Z,14.91
2023-02-15T00:10:27.315Z,14.91
2023-02-15T00:12:55.659Z,14.88
2023-02-15T00:15:25.310Z,14.87
2023-02-15T00:17:55.430Z,14.86
2023-02-15T00:20:24.135Z,14.85
2023-02-15T00:22:52.532Z,14.82
2023-02-15T00:25:20.883Z,14.82
2023-02-15T00:27:50.686Z,14.82
2023-02-15T00:30:19.514Z,14.81
2023-02-15T00:32:49.821Z,14.81
2023-02-15T00:35:19.971Z,14.77
2023-02-15T00:37:48.653Z,14.76
2023-02-15T00:40:17.138Z,14.74
2023-02-15T00:42:45.713Z,14.73
2023-02-15T00:45:15.597Z,14.71
2023-02-15T00:47:45.463Z,14.71
2023-02-15T00:50:13.915Z,14.70
2023-02-15T00:52:43.821Z,14.68
2023-02-15T00:55:12.239Z,14.66
2023-02-15T00:57:40.617Z,14.65
2023-02-15T01:00:10.575Z,14.62
2023-02-15T01:02:39.083Z,14.60
2023-02-15T01:05:08.187Z,14.59
2023-02-15T01:07:36.945Z,14.56
2023-02-15T01:10:08.865Z,14.55
2023-02-15T01:12:37.399Z,14.53
2023-02-15T01:15:06.454Z,14.52
2023-02-15T01:17:35.150Z,14.51
2023-02-15T01:20:07.723Z,14.51
2023-02-15T01:22:36.143Z,14.47
2023-02-15T01:25:06.676Z,14.45
2023-02-15T01:27:35.055Z,14.43
2023-02-15T01:30:05.511Z,14.44
2023-02-15T01:32:34.108Z,14.43
2023-02-15T01:35:02.721Z,14.42
2023-02-15T01:37:33.227Z,14.42
2023-02-15T01:40:02.122Z,14.39
2023-02-15T01:42:33.939Z,14.38
2023-02-15T01:45:04.622Z,14.35
2023-02-15T01:47:38.728Z,14.33
2023-02-15T01:50:14.687Z,14.32
2023-02-15T01:52:48.920Z,14.32
2023-02-15T01:55:17.945Z,14.29
2023-02-15T01:57:48.794Z,14.28
2023-02-15T02:00:28.808Z,14.28
2023-02-15T02:02:59.338Z,14.27
2023-02-15T02:05:28.508Z,14.26
2023-02-15T02:08:00.973Z,14.25
2023-02-15T02:10:30.192Z,14.22
2023-02-15T02:13:03.729Z,14.22
2023-02-15T02:15:48.756Z,14.19
2023-02-15T02:18:34.654Z,14.18
2023-02-15T02:21:38.708Z,14.14
2023-02-15T02:24:42.609Z,14.14
2023-02-15T02:27:32.189Z,14.11
2023-02-15T02:30:39.460Z,14.09
2023-02-15T02:33:23.218Z,14.08
2023-02-15T02:36:10.957Z,14.06
2023-02-15T02:38:55.333Z,14.06
2023-02-15T02:41:34.233Z,14.02
2023-02-15T02:44:12.251Z,14.02
2023-02-15T02:47:00.442Z,13.99
2023-02-15T02:49:38.930Z,13.98
2023-02-15T02:52:37.236Z,13.96
2023-02-15T02:55:09.484Z,13.96
2023-02-15T02:57:51.726Z,13.93
2023-02-15T03:00:23.342Z,13.92
2023-02-15T03:02:59.288Z,13.90
2023-02-15T03:05:31.938Z,13.89
2023-02-15T03:08:06.911Z,13.86
2023-02-15T03:10:37.835Z,13.85
2023-02-15T03:13:07.444Z,13.84
2023-02-15T03:15:57.979Z,13.82
2023-02-15T03:18:32.802Z,13.80
2023-02-15T03:21:05.473Z,13.77
2023-02-15T03:23:36.191Z,13.77
2023-02-15T03:26:08.613Z,13.76
2023-02-15T03:28:44.529Z,13.75
2023-02-15T03:31:16.458Z,13.75
2023-02-15T03:33:57.684Z,13.73
2023-02-15T03:36:35.372Z,13.73
2023-02-15T03:39:17.879Z,13.72
2023-02-15T03:41:55.044Z,13.70
2023-02-15T03:44:30.148Z,13.71
2023-02-15T03:47:06.374Z,13.69
2023-02-15T03:49:43.217Z,13.69
2023-02-15T03:52:14.328Z,13.66
2023-02-15T03:54:49.557Z,13.66
2023-02-15T03:57:41.842Z,13.65
2023-02-15T04:00:38.098Z,13.63
2023-02-15T04:03:19.339Z,13.61
2023-02-15T04:05:47.878Z,13.59
2023-02-15T04:08:17.837Z,13.58
2023-02-15T04:10:54.605Z,13.57
2023-02-15T04:13:23.989Z,13.56
2023-02-15T04:16:07.685Z,13.54
2023-02-15T04:18:58.286Z,13.53
2023-02-15T04:21:47.412Z,13.51
2023-02-15T04:24:35.316Z,13.49
2023-02-15T04:27:05.267Z,13.45
2023-02-15T04:29:34.233Z,13.46
2023-02-15T04:32:04.054Z,13.45
2023-02-15T04:34:32.612Z,13.43
2023-02-15T04:37:01.262Z,13.43
2023-02-15T04:39:31.029Z,13.43
2023-02-15T04:42:02.234Z,13.42
2023-02-15T04:44:30.638Z,13.41
2023-02-15T04:46:59.021Z,13.39
2023-02-15T04:49:27.600Z,13.39
2023-02-15T04:51:55.934Z,13.38
2023-02-15T04:54:24.656Z,13.38
2023-02-15T04:56:54.357Z,13.36
2023-02-15T04:59:22.783Z,13.34
2023-02-15T05:01:51.244Z,13.33
2023-02-15T05:04:20.001Z,13.32
2023-02-15T05:06:48.397Z,13.31
2023-02-15T05:09:17.415Z,13.30
2023-02-15T05:11:45.840Z,13.28
2023-02-15T05:14:16.057Z,13.26
2023-02-15T05:16:44.527Z,13.24
2023-02-15T05:19:12.990Z,13.22
2023-02-15T05:21:41.393Z,13.22
2023-02-15T05:24:23.808Z,13.19
2023-02-15T05:27:10.116Z,13.19
2023-02-15T05:29:40.601Z,13.16
2023-02-15T05:32:09.156Z,13.15
2023-02-15T05:34:37.913Z,13.13
2023-02-15T05:37:06.272Z,13.12
2023-02-15T05:39:34.805Z,13.11
2023-02-15T05:42:03.548Z,13.10
2023-02-15T05:44:32.027Z,13.09
2023-02-15T05:47:03.865Z,13.08
2023-02-15T05:49:32.417Z,13.08
2023-02-15T05:52:00.840Z,13.06
2023-02-15T05:54:29.911Z,13.06
2023-02-15T05:56:58.510Z,13.04
2023-02-15T05:59:27.122Z,13.03
2023-02-15T06:01:55.473Z,13.02
2023-02-15T06:04:25.287Z,13.02
2023-02-15T06:06:53.796Z,13.00
2023-02-15T06:09:22.412Z,12.99
2023-02-15T06:11:50.875Z,12.98
2023-02-15T06:14:19.561Z,12.96
2023-02-15T06:16:47.936Z,12.94
2023-02-15T06:19:16.726Z,12.93
2023-02-15T06:21:46.973Z,12.93
2023-02-15T06:24:15.490Z,12.92
2023-02-15T06:26:43.939Z,12.91
2023-02-15T06:29:12.351Z,12.92
2023-02-15T06:31:40.764Z,12.91
2023-02-15T06:34:10.057Z,12.90
2023-02-15T06:36:38.713Z,12.90
2023-02-15T06:39:08.747Z,12.88
2023-02-15T06:41:37.301Z,12.88
2023-02-15T06:44:06.391Z,12.86
2023-02-15T06:46:34.994Z,12.85
2023-02-15T06:49:03.564Z,12.85
2023-02-15T06:51:32.029Z,12.83
2023-02-15T06:54:00.464Z,12.82
2023-02-15T06:56:30.572Z,12.83
2023-02-15T06:58:59.487Z,12.81
2023-02-15T07:01:28.191Z,12.78
2023-02-15T07:03:56.521Z,12.78
2023-02-15T07:06:24.895Z,12.78
2023-02-15T07:08:53.491Z,12.77
2023-02-15T07:11:39.448Z,12.76
2023-02-15T07:14:09.484Z,12.75
2023-02-15T07:16:38.000Z,12.74
2023-02-15T07:19:08.098Z,12.74
2023-02-15T07:21:36.999Z,12.73
2023-02-15T07:24:06.309Z,12.74
2023-02-15T07:26:35.114Z,12.74
2023-02-15T07:29:03.506Z,12.73
2023-02-15T07:31:33.585Z,12.73
2023-02-15T07:34:02.167Z,12.74
2023-02-15T07:36:30.554Z,12.73
2023-02-15T07:38:58.968Z,12.73
2023-02-15T07:41:27.368Z,12.75
2023-02-15T07:43:55.820Z,12.76
2023-02-15T07:46:24.356Z,12.75
2023-02-15T07:48:54.387Z,12.75
2023-02-15T07:51:22.785Z,12.75
2023-02-15T07:53:52.480Z,12.76
2023-02-15T07:56:20.899Z,12.75
2023-02-15T07:58:56.797Z,12.76
2023-02-15T08:01:27.968Z,12.77
2023-02-15T08:04:01.247Z,12.78
2023-02-15T08:06:32.173Z,12.80
2023-02-15T08:09:01.762Z,12.82
2023-02-15T08:11:37.418Z,12.83
2023-02-15T08:14:09.500Z,12.84
2023-02-15T08:16:40.247Z,12.86
2023-02-15T08:19:13.664Z,12.87
2023-02-15T08:21:44.997Z,12.89
2023-02-15T08:24:15.220Z,12.90
2023-02-15T08:26:45.913Z,12.92
2023-02-15T08:29:15.113Z,12.93
2023-02-15T08:31:43.790Z,12.98
2023-02-15T08:34:18.489Z,13.00
2023-02-15T08:36:47.328Z,13.01
2023-02-15T08:39:17.359Z,13.03
2023-02-15T08:41:48.888Z,13.05
2023-02-15T08:44:21.405Z,13.07
2023-02-15T08:46:51.564Z,13.08
2023-02-15T08:49:23.591Z,13.11
2023-02-15T08:51:52.434Z,13.13
2023-02-15T08:54:23.427Z,13.15
2023-02-15T08:56:51.946Z,13.18
2023-02-15T08:59:23.114Z,13.23
2023-02-15T09:01:53.860Z,13.27
2023-02-15T09:04:24.355Z,13.31
2023-02-15T09:06:53.193Z,13.34
2023-02-15T09:09:22.323Z,13.39
2023-02-15T09:11:58.832Z,13.44
2023-02-15T09:14:29.013Z,13.47
2023-02-15T09:16:57.598Z,13.51
2023-02-15T09:19:27.659Z,13.57
2023-02-15T09:21:56.245Z,13.61
2023-02-15T09:24:24.951Z,13.66
2023-02-15T09:26:53.501Z,13.71
2023-02-15T09:29:23.617Z,13.75
2023-02-15T09:31:54.834Z,13.79
2023-02-15T09:34:25.939Z,13.83
2023-02-15T09:36:54.458Z,13.86
2023-02-15T09:39:25.646Z,13.92
2023-02-15T09:42:44.594Z,13.96
2023-02-15T09:45:27.986Z,14.01
2023-02-15T09:48:41.949Z,14.05
2023-02-15T09:51:43.846Z,14.12
2023-02-15T09:54:35.898Z,14.16
2023-02-15T09:57:12.241Z,14.23
2023-02-15T09:59:54.671Z,14.29
2023-02-15T10:02:39.483Z,14.34
2023-02-15T10:05:23.115Z,14.41
2023-02-15T10:08:18.203Z,14.45
2023-02-15T10:11:19.982Z,14.51
2023-02-15T10:14:04.009Z,14.57
2023-02-15T10:16:44.539Z,14.63
2023-02-15T10:19:24.458Z,14.68
2023-02-15T10:22:08.674Z,14.74
2023-02-15T10:24:57.866Z,14.80
2023-02-15T10:27:26.473Z,14.86
2023-02-15T10:30:05.896Z,14.92
2023-02-15T10:32:42.801Z,14.97
2023-02-15T10:35:22.480Z,15.01
2023-02-15T10:38:08.160Z,15.06
2023-02-15T10:40:48.922Z,15.11
2023-02-15T10:43:34.283Z,15.17
2023-02-15T10:46:16.179Z,15.21
2023-02-15T10:49:12.706Z,15.26
2023-02-15T10:51:55.664Z,15.33
2023-02-15T10:54:34.615Z,15.40
2023-02-15T10:57:11.846Z,15.45
2023-02-15T11:00:07.705Z,15.53
2023-02-15T11:02:55.036Z,15.58
2023-02-15T11:05:44.377Z,15.63
2023-02-15T11:08:14.287Z,15.67
2023-02-15T11:10:48.923Z,15.74
2023-02-15T11:13:21.210Z,15.80
2023-02-15T11:15:56.153Z,15.84
2023-02-15T11:18:30.283Z,15.90
2023-02-15T11:21:04.121Z,15.95
2023-02-15T11:23:36.162Z,16.00
2023-02-15T11:26:11.761Z,16.04
2023-02-15T11:28:45.523Z,16.09
2023-02-15T11:31:19.037Z,16.14
2023-02-15T11:33:53.961Z,16.19
2023-02-15T11:36:27.276Z,16.25
2023-02-15T11:39:02.987Z,16.30
2023-02-15T11:41:38.434Z,16.36
2023-02-15T11:44:17.283Z,16.41
2023-02-15T11:46:45.962Z,16.45
2023-02-15T11:49:25.710Z,16.51
2023-02-15T11:51:55.889Z,16.56
2023-02-15T11:54:30.532Z,16.62
2023-02-15T11:57:05.186Z,16.67
2023-02-15T11:59:38.678Z,16.74
2023-02-15T12:02:19.269Z,16.77
2023-02-15T12:04:54.949Z,16.82
2023-02-15T12:07:28.457Z,16.85
2023-02-15T12:10:08.046Z,16.90
2023-02-15T12:12:38.220Z,16.96
2023-02-15T12:15:12.023Z,17.01
2023-02-15T12:17:43.973Z,17.04
2023-02-15T12:20:27.897Z,17.09
2023-02-15T12:23:03.248Z,17.13
2023-02-15T12:25:38.553Z,17.17
2023-02-15T12:28:26.127Z,17.19
2023-02-15T12:30:57.674Z,17.21
2023-02-15T12:33:32.610Z,17.25
2023-02-15T12:36:08.406Z,17.29
2023-02-15T12:38:36.836Z,17.31
2023-02-15T12:41:13.030Z,17.35
2023-02-15T12:43:41.410Z,17.38
2023-02-15T12:46:25.389Z,17.40
2023-02-15T12:49:21.184Z,17.42
2023-02-15T12:51:52.834Z,17.46
2023-02-15T12:54:35.322Z,17.50
2023-02-15T12:57:23.872Z,17.52
2023-02-15T12:59:55.453Z,17.57
2023-02-15T13:02:30.134Z,17.60
2023-02-15T13:05:07.248Z,17.64
2023-02-15T13:07:36.427Z,17.68
2023-02-15T13:10:05.831Z,17.73
2023-02-15T13:12:35.160Z,17.77
2023-02-15T13:15:05.875Z,17.80
2023-02-15T13:17:36.106Z,17.85
2023-02-15T13:20:10.553Z,17.88
2023-02-15T13:22:44.788Z,17.92
2023-02-15T13:25:20.393Z,17.97
2023-02-15T13:27:55.252Z,18.02
2023-02-15T13:30:32.109Z,18.05
2023-02-15T13:33:06.466Z,18.10
2023-02-15T13:35:43.214Z,18.15
2023-02-15T13:38:46.586Z,18.16
2023-02-15T13:41:18.721Z,18.17
2023-02-15T13:44:01.324Z,18.20
2023-02-15T13:46:55.654Z,18.23
2023-02-15T13:49:42.107Z,18.28
2023-02-15T13:52:21.270Z,18.30
2023-02-15T13:55:11.182Z,18.34
2023-02-15T13:58:00.718Z,18.37
2023-02-15T14:00:38.516Z,18.41
2023-02-15T14:03:41.342Z,18.46
2023-02-15T14:06:32.665Z,18.51
2023-02-15T14:09:14.290Z,18.54
2023-02-15T14:11:53.977Z,18.59
2023-02-15T14:15:01.009Z,18.60
2023-02-15T14:17:46.253Z,18.63
2023-02-15T14:20:25.164Z,18.65
2023-02-15T14:23:04.872Z,18.66
2023-02-15T14:25:41.481Z,18.68
2023-02-15T14:28:15.573Z,18.68
2023-02-15T14:30:47.356Z,18.68
2023-02-15T14:33:35.631Z,18.68
2023-02-15T14:36:07.714Z,18.68
2023-02-15T14:38:56.847Z,18.68
2023-02-15T14:41:34.022Z,18.68
2023-02-15T14:44:11.643Z,18.67
2023-02-15T14:46:48.351Z,18.67
2023-02-15T14:49:21.642Z,18.67
2023-02-15T14:51:59.844Z,18.64
2023-02-15T14:55:06.433Z,18.62
2023-02-15T14:57:37.314Z,18.61
2023-02-15T15:00:34.909Z,18.59
2023-02-15T15:03:03.702Z,18.56
2023-02-15T15:05:36.895Z,18.57
2023-02-15T15:08:07.391Z,18.55
2023-02-15T15:10:42.535Z,18.54
2023-02-15T15:13:38.990Z,18.52
2023-02-15T15:16:30.765Z,18.50
2023-02-15T15:19:00.722Z,18.48
2023-02-15T15:21:57.764Z,18.45
2023-02-15T15:24:53.735Z,18.43
2023-02-15T15:27:46.004Z,18.39
2023-02-15T15:31:01.682Z,18.35
2023-02-15T15:34:21.072Z,18.33
2023-02-15T15:37:45.336Z,18.30
2023-02-15T15:40:43.910Z,18.29
2023-02-15T15:44:03.913Z,18.27
2023-02-15T15:47:15.750Z,18.26
2023-02-15T15:49:44.278Z,18.26
2023-02-15T15:52:17.780Z,18.24
2023-02-15T15:54:49.240Z,18.25
2023-02-15T15:57:24.416Z,18.25
2023-02-15T15:59:55.760Z,18.25
2023-02-15T16:02:24.666Z,18.22
2023-02-15T16:04:53.092Z,18.21
2023-02-15T16:07:27.932Z,18.21
2023-02-15T16:09:58.548Z,18.18
2023-02-15T16:12:29.383Z,18.16
2023-02-15T16:15:00.257Z,18.15
2023-02-15T16:17:32.672Z,18.15
2023-02-15T16:20:09.896Z,18.12
2023-02-15T16:22:40.321Z,18.10
2023-02-15T16:25:39.042Z,18.06
2023-02-15T16:28:13.422Z,18.05
2023-02-15T16:30:45.375Z,18.00
2023-02-15T16:33:16.761Z,18.00
2023-02-15T16:35:57.194Z,17.98
2023-02-15T16:39:08.345Z,17.94
2023-02-15T16:41:38.658Z,17.90
2023-02-15T16:44:15.141Z,17.90
2023-02-15T16:46:50.096Z,17.88
2023-02-15T16:49:22.437Z,17.87
2023-02-15T16:51:59.639Z,17.83
2023-02-15T16:54:30.094Z,17.80
2023-02-15T16:56:58.898Z,17.78
2023-02-15T16:59:37.446Z,17.76
2023-02-15T17:02:14.502Z,17.73
2023-02-15T17:04:46.976Z,17.69
2023-02-15T17:07:20.981Z,17.68
2023-02-15T17:09:55.023Z,17.66
2023-02-15T17:12:48.360Z,17.63
2023-02-15T17:15:33.828Z,17.60
2023-02-15T17:18:08.870Z,17.56
2023-02-15T17:20:40.291Z,17.54
2023-02-15T17:23:09.021Z,17.51
2023-02-15T17:25:43.234Z,17.51
2023-02-15T17:28:20.619Z,17.50
2023-02-15T17:30:50.226Z,17.48
2023-02-15T17:33:29.829Z,17.49
2023-02-15T17:36:09.750Z,17.46
2023-02-15T17:38:39.008Z,17.44
2023-02-15T17:41:07.548Z,17.42
2023-02-15T17:43:35.944Z,17.40
2023-02-15T17:46:04.538Z,17.40
2023-02-15T17:48:37.824Z,17.39
2023-02-15T17:51:13.415Z,17.37
2023-02-15T17:54:02.152Z,17.36
2023-02-15T17:56:29.824Z,17.31
2023-02-15T17:58:58.317Z,17.30
2023-02-15T18:01:44.296Z,17.29
2023-02-15T18:04:33.916Z,17.26
2023-02-15T18:07:20.057Z,17.20
2023-02-15T18:10:06.374Z,17.17
2023-02-15T18:12:38.563Z,17.12
2023-02-15T18:15:11.447Z,17.09
2023-02-15T18:17:44.926Z,17.09
2023-02-15T18:20:22.211Z,17.07
2023-02-15T18:22:51.605Z,17.06
2023-02-15T18:25:23.560Z,17.06
2023-02-15T18:27:54.572Z,17.04
2023-02-15T18:30:26.535Z,17.02
2023-02-15T18:32:57.840Z,17.02
2023-02-15T18:35:32.135Z,16.98
2023-02-15T18:38:02.154Z,16.97
2023-02-15T18:40:31.514Z,16.94
2023-02-15T18:43:00.099Z,16.91
2023-02-15T18:45:32.917Z,16.91
2023-02-15T18:48:01.821Z,16.90
2023-02-15T18:50:35.937Z,16.91
2023-02-15T18:53:06.028Z,16.88
2023-02-15T18:55:35.367Z,16.87
2023-02-15T18:58:04.225Z,16.87
2023-02-15T19:00:35.263Z,16.87
2023-02-15T19:03:04.631Z,16.84
2023-02-15T19:05:35.453Z,16.83
2023-02-15T19:08:04.511Z,16.83
2023-02-15T19:10:34.963Z,16.81
2023-02-15T19:13:03.386Z,16.79
2023-02-15T19:15:32.230Z,16.77
2023-02-15T19:18:00.957Z,16.74
2023-02-15T19:20:34.394Z,16.73
2023-02-15T19:23:04.272Z,16.69
2023-02-15T19:25:37.567Z,16.67
2023-02-15T19:28:13.499Z,16.66
2023-02-15T19:30:41.874Z,16.64
2023-02-15T19:33:18.845Z,16.64
2023-02-15T19:35:52.465Z,16.62
2023-02-15T19:38:25.389Z,16.61
2023-02-15T19:40:54.126Z,16.57
2023-02-15T19:43:26.316Z,16.57
2023-02-15T19:45:55.220Z,16.54
2023-02-15T19:48:23.670Z,16.53
2023-02-15T19:50:55.375Z,16.51
2023-02-15T19:53:26.161Z,16.49
2023-02-15T19:55:55.424Z,16.48
2023-02-15T19:58:24.331Z,16.46
2023-02-15T20:00:53.425Z,16.45
2023-02-15T20:03:22.118Z,16.44
2023-02-15T20:05:52.000Z,16.42
2023-02-15T20:08:23.553Z,16.42
2023-02-15T20:10:52.223Z,16.41
2023-02-15T20:13:22.070Z,16.40
2023-02-15T20:15:53.098Z,16.40
2023-02-15T20:18:22.675Z,16.38
2023-02-15T20:20:54.862Z,16.38
2023-02-15T20:23:27.442Z,16.37
2023-02-15T20:26:00.506Z,16.35
2023-02-15T20:28:32.066Z,16.34
2023-02-15T20:31:00.872Z,16.33
2023-02-15T20:33:29.677Z,16.32
2023-02-15T20:36:00.767Z,16.32
2023-02-15T20:38:32.215Z,16.31
2023-02-15T20:41:20.159Z,16.29
2023-02-15T20:43:48.685Z,16.26
2023-02-15T20:46:17.114Z,16.24
2023-02-15T20:48:45.528Z,16.22
2023-02-15T20:51:19.111Z,16.21
2023-02-15T20:53:48.519Z,16.20
2023-02-15T20:56:20.638Z,16.19
2023-02-15T20:58:49.240Z,16.15
2023-02-15T21:01:19.780Z,16.15
2023-02-15T21:03:48.997Z,16.13
2023-02-15T21:06:19.356Z,16.13
2023-02-15T21:08:47.971Z,16.11
2023-02-15T21:11:21.853Z,16.10
2023-02-15T21:13:51.626Z,16.09
2023-02-15T21:16:20.153Z,16.06
2023-02-15T21:18:48.682Z,16.06
2023-02-15T21:21:24.629Z,16.04
2023-02-15T21:23:54.282Z,16.01
2023-02-15T21:26:24.064Z,16.02
2023-02-15T21:28:52.624Z,16.00
2023-02-15T21:31:24.476Z,16.00
2023-02-15T21:33:53.397Z,15.97
2023-02-15T21:36:26.970Z,15.96
2023-02-15T21:38:55.548Z,15.95
2023-02-15T21:41:44.126Z,15.93
2023-02-15T21:44:35.294Z,15.89
2023-02-15T21:47:21.490Z,15.86
2023-02-15T21:49:49.985Z,15.84
2023-02-15T21:52:22.988Z,15.82
2023-02-15T21:54:51.364Z,15.80
2023-02-15T21:57:22.143Z,15.81
2023-02-15T21:59:50.807Z,15.78
2023-02-15T22:02:31.790Z,15.77
2023-02-15T22:05:00.616Z,15.75
2023-02-15T22:07:30.387Z,15.76
2023-02-15T22:09:59.018Z,15.73
2023-02-15T22:12:27.391Z,15.72
2023-02-15T22:14:55.971Z,15.70
2023-02-15T22:17:28.976Z,15.68
2023-02-15T22:19:58.893Z,15.68
2023-02-15T22:22:30.799Z,15.66
2023-02-15T22:24:59.291Z,15.64
2023-02-15T22:27:31.530Z,15.61
2023-02-15T22:30:00.238Z,15.60
2023-02-15T22:32:28.823Z,15.58
2023-02-15T22:34:57.707Z,15.56
2023-02-15T22:37:26.216Z,15.54
2023-02-15T22:39:56.469Z,15.55
2023-02-15T22:42:28.029Z,15.53
2023-02-15T22:44:58.526Z,15.51
2023-02-15T22:47:29.451Z,15.51
2023-02-15T22:49:57.836Z,15.50
2023-02-15T22:52:26.408Z,15.50
2023-02-15T22:54:56.216Z,15.50
2023-02-15T22:57:30.553Z,15.50
2023-02-15T23:00:00.607Z,15.49
2023-02-15T23:02:29.233Z,15.47
2023-02-15T23:04:57.617Z,15.47
2023-02-15T23:07:26.257Z,15.46
2023-02-15T23:09:56.083Z,15.42
2023-02-15T23:12:28.455Z,15.43
2023-02-15T23:14:57.806Z,15.41
2023-02-15T23:17:26.407Z,15.40
2023-02-15T23:19:54.857Z,15.39
2023-02-15T23:22:23.437Z,15.37
2023-02-15T23:24:55.753Z,15.37
2023-02-15T23:27:41.811Z,15.34
2023-02-15T23:30:15.594Z,15.32
2023-02-15T23:32:44.288Z,15.30
2023-02-15T23:35:16.486Z,15.29
2023-02-15T23:37:45.321Z,15.28
2023-02-15T23:40:35.244Z,15.27
2023-02-15T23:43:03.954Z,15.25
2023-02-15T23:45:37.248Z,15.23
2023-02-15T23:48:32.987Z,15.23
2023-02-15T23:51:02.436Z,15.19
2023-02-15T23:53:31.721Z,15.17
2023-02-15T23:56:01.854Z,15.15
2023-02-15T23:58:37.911Z,15.14
